Time;durP1;ratioP1;P1;durP2;ratioP2;P2;SDS_P1;SDS_P2;PMS_P1;PMS_P2;Temp;Humidity;BMP_temperature;BMP_pressure;BME280_temperature;BME280_humidity;BME280_pressure;Samples;Min_cycle;Max_cycle;Signal;HPM_P1;HPM_P2
2023/02/15 00:02:01;;;;;;;20.70;9.07;;;;;;;1.75;98.76;102689.78;5035570;28;20854;-71
2023/02/15 00:04:45;;;;;;;22.87;10.17;;;;;;;1.67;99.46;102696.06;5035733;28;20439;-69
2023/02/15 00:07:15;;;;;;;26.73;10.93;;;;;;;1.58;98.43;102689.19;5035394;28;20935;-69
2023/02/15 00:09:41;;;;;;;23.67;10.67;;;;;;;1.54;98.58;102692.41;5035657;28;20869;-69
2023/02/15 00:12:09;;;;;;;20.63;8.73;;;;;;;1.46;98.46;102685.34;5035127;28;20543;-69
2023/02/15 00:14:36;;;;;;;20.43;9.00;;;;;;;1.46;99.57;102685.34;5035501;28;20447;-69
2023/02/15 00:17:03;;;;;;;31.07;11.87;;;;;;;1.42;100.00;102668.06;5035547;28;20478;-69
2023/02/15 00:19:29;;;;;;;31.73;11.13;;;;;;;1.40;100.00;102673.59;5035143;28;21003;-69
2023/02/15 00:21:56;;;;;;;26.00;8.70;;;;;;;1.48;100.00;102676.13;5035026;28;20852;-70
2023/02/15 00:24:24;;;;;;;27.90;9.47;;;;;;;1.40;99.56;102668.25;5035350;28;20465;-69
2023/02/15 00:26:50;;;;;;;21.93;9.10;;;;;;;1.31;100.00;102661.34;5035422;28;20531;-69
2023/02/15 00:29:19;;;;;;;25.37;11.00;;;;;;;1.36;100.00;102661.63;5035224;28;20820;-69
2023/02/15 00:31:46;;;;;;;25.00;9.63;;;;;;;1.24;99.60;102663.97;5035160;28;20464;-69
2023/02/15 00:34:15;;;;;;;26.00;9.97;;;;;;;1.18;99.83;102667.38;5035117;28;20454;-70
2023/02/15 00:36:42;;;;;;;23.50;9.60;;;;;;;1.18;99.06;102667.38;5035164;28;20505;-69
2023/02/15 00:39:09;;;;;;;27.83;9.07;;;;;;;1.17;99.60;102668.38;5034589;28;20913;-69
2023/02/15 00:41:37;;;;;;;31.27;10.83;;;;;;;1.15;100.00;102670.44;5034462;28;20944;-69
2023/02/15 00:44:04;;;;;;;24.43;9.63;;;;;;;1.16;100.00;102668.59;5035116;28;20446;-69
2023/02/15 00:46:31;;;;;;;27.77;10.13;;;;;;;1.23;99.84;102672.97;5034894;28;20481;-69
2023/02/15 00:48:57;;;;;;;32.40;10.90;;;;;;;1.15;100.00;102667.75;5034975;28;20504;-69
2023/02/15 00:51:25;;;;;;;15.77;7.07;;;;;;;1.12;100.00;102664.63;5034704;28;20546;-69
2023/02/15 00:53:52;;;;;;;20.67;7.47;;;;;;;1.03;98.78;102663.91;5034843;28;20435;-69
2023/02/15 00:56:18;;;;;;;21.33;8.80;;;;;;;1.01;99.77;102663.25;5034425;28;20948;-69
2023/02/15 00:58:46;;;;;;;25.67;9.80;;;;;;;1.08;99.14;102661.50;5034945;28;20522;-69
2023/02/15 01:01:16;;;;;;;30.43;10.40;;;;;;;1.19;98.64;102652.19;5034471;28;20495;-69
2023/02/15 01:03:43;;;;;;;34.67;10.20;;;;;;;1.04;100.00;102646.06;5034955;28;20530;-69
2023/02/15 01:06:11;;;;;;;24.00;9.53;;;;;;;0.93;100.00;102647.34;5034187;28;20447;-69
2023/02/15 01:08:38;;;;;;;22.27;9.30;;;;;;;0.98;100.00;102650.31;5034508;28;20880;-69
2023/02/15 01:11:05;;;;;;;24.93;10.80;;;;;;;0.99;100.00;102646.63;5034054;28;20471;-69
2023/02/15 01:13:32;;;;;;;19.60;9.03;;;;;;;0.83;100.00;102638.81;5034425;28;20471;-69
2023/02/15 01:16:00;;;;;;;28.57;9.60;;;;;;;0.77;100.00;102636.88;5034380;28;20450;-70
2023/02/15 01:18:27;;;;;;;27.20;9.73;;;;;;;0.72;100.00;102640.94;5034466;28;20479;-70
2023/02/15 01:20:54;;;;;;;24.93;8.83;;;;;;;0.77;100.00;102632.38;5034021;28;20466;-70
2023/02/15 01:23:20;;;;;;;25.43;9.77;;;;;;;0.83;100.00;102631.63;5034070;28;20518;-69
2023/02/15 01:25:47;;;;;;;23.73;8.03;;;;;;;0.69;100.00;102635.97;5033869;28;20443;-70
2023/02/15 01:28:14;;;;;;;27.60;9.00;;;;;;;0.74;100.00;102632.75;5034187;28;20439;-69
2023/02/15 01:30:40;;;;;;;26.03;10.17;;;;;;;0.75;100.00;102632.56;5034192;28;20538;-70
2023/02/15 01:33:17;;;;;;;18.90;8.30;;;;;;;0.80;100.00;102632.00;5034137;28;20477;-70
2023/02/15 01:35:43;;;;;;;23.10;9.27;;;;;;;0.84;100.00;102629.78;5034118;28;20446;-70
2023/02/15 01:38:10;;;;;;;29.73;10.97;;;;;;;0.72;100.00;102624.94;5034052;28;20818;-70
2023/02/15 01:40:38;;;;;;;23.67;10.30;;;;;;;0.64;100.00;102624.19;5033868;28;20439;-69
2023/02/15 01:43:10;;;;;;;25.10;11.43;;;;;;;0.69;100.00;102614.63;5033502;28;20996;-69
2023/02/15 01:45:37;;;;;;;30.57;11.53;;;;;;;0.64;100.00;102598.34;5033864;28;20436;-69
2023/02/15 01:48:06;;;;;;;25.20;11.03;;;;;;;0.71;100.00;102598.47;5033736;28;20538;-70
2023/02/15 01:50:38;;;;;;;24.93;11.20;;;;;;;0.73;100.00;102594.56;5033849;28;20526;-71
2023/02/15 01:53:10;;;;;;;32.93;10.10;;;;;;;0.65;100.00;102586.66;5033040;28;20423;-69
2023/02/15 01:55:40;;;;;;;24.43;9.53;;;;;;;0.56;100.00;102579.78;5033781;28;20432;-70
2023/02/15 01:58:08;;;;;;;30.17;10.80;;;;;;;0.62;100.00;102576.41;5033308;28;20526;-70
2023/02/15 02:00:35;;;;;;;25.37;10.07;;;;;;;0.64;100.00;102579.69;5033119;28;20880;-69
2023/02/15 02:03:30;;;;;;;28.90;10.20;;;;;;;0.60;98.87;102572.25;5033232;28;20482;-70
2023/02/15 02:05:58;;;;;;;22.17;8.90;;;;;;;0.63;98.92;102572.72;5033437;28;20515;-70
2023/02/15 02:08:25;;;;;;;23.17;8.37;;;;;;;0.60;98.33;102572.25;5033375;28;20892;-70
2023/02/15 02:10:51;;;;;;;26.27;10.23;;;;;;;0.55;98.87;102566.66;5033280;28;20442;-70
2023/02/15 02:13:18;;;;;;;21.70;9.30;;;;;;;0.50;99.55;102567.22;5033365;28;20530;-69
2023/02/15 02:15:50;;;;;;;35.20;11.70;;;;;;;0.59;99.62;102565.28;5033231;28;20478;-69
2023/02/15 02:18:32;;;;;;;26.97;10.80;;;;;;;0.53;99.30;102566.00;5033343;28;20436;-69
2023/02/15 02:21:31;;;;;;;20.50;7.60;;;;;;;0.56;98.56;102569.13;5033217;28;20501;-69
2023/02/15 02:24:22;;;;;;;25.63;10.30;;;;;;;0.51;98.94;102555.53;5032994;28;20435;-70
2023/02/15 02:27:23;;;;;;;25.17;9.43;;;;;;;0.43;99.74;102555.63;5024352;28;20501;-70
2023/02/15 02:30:27;;;;;;;25.83;9.70;;;;;;;0.40;100.00;102555.97;5033030;28;20482;-69
2023/02/15 02:33:28;;;;;;;24.23;9.60;;;;;;;0.49;100.00;102560.22;5033054;28;20454;-70
2023/02/15 02:36:03;;;;;;;27.17;10.17;;;;;;;0.48;100.00;102553.22;5032669;28;20537;-69
2023/02/15 02:38:39;;;;;;;26.17;10.87;;;;;;;0.52;100.00;102543.84;5033090;28;20427;-69
2023/02/15 02:41:17;;;;;;;27.03;9.90;;;;;;;0.56;100.00;102547.78;5033237;28;20553;-69
2023/02/15 02:43:52;;;;;;;22.77;9.07;;;;;;;0.46;100.00;102547.25;5033092;28;20493;-70
2023/02/15 02:46:25;;;;;;;26.33;10.47;;;;;;;0.50;100.00;102543.22;5032765;28;20908;-69
2023/02/15 02:48:53;;;;;;;32.30;12.43;;;;;;;0.47;100.00;102546.25;5033167;28;20451;-70
2023/02/15 02:51:21;;;;;;;22.73;9.87;;;;;;;0.52;100.00;102543.00;5032472;28;20485;-70
2023/02/15 02:53:52;;;;;;;23.07;10.30;;;;;;;0.52;100.00;102532.34;5032819;28;20860;-70
2023/02/15 02:56:25;;;;;;;32.93;11.47;;;;;;;0.48;100.00;102542.56;5032934;28;20431;-69
2023/02/15 02:59:00;;;;;;;24.50;9.37;;;;;;;0.42;100.00;102538.81;5032535;28;20431;-70
2023/02/15 03:01:32;;;;;;;27.50;10.40;;;;;;;0.47;100.00;102536.41;5032652;28;21006;-70
2023/02/15 03:04:04;;;;;;;26.47;10.20;;;;;;;0.38;99.42;102532.19;5035245;28;20562;-70
2023/02/15 03:06:37;;;;;;;28.10;10.17;;;;;;;0.42;99.48;102529.97;5037062;28;20451;-70
2023/02/15 03:09:14;;;;;;;27.27;10.20;;;;;;;0.40;99.03;102527.50;5036782;28;20832;-70
2023/02/15 03:11:42;;;;;;;20.27;8.33;;;;;;;0.41;98.83;102515.00;5036373;28;20557;-71
2023/02/15 03:14:08;;;;;;;28.77;11.00;;;;;;;0.36;98.63;102518.22;5036581;28;20506;-70
2023/02/15 03:16:35;;;;;;;25.77;9.77;;;;;;;0.33;98.37;102510.59;5036596;28;20537;-69
2023/02/15 03:19:08;;;;;;;22.57;9.30;;;;;;;0.26;97.44;102517.66;5036547;28;20450;-70
2023/02/15 03:21:39;;;;;;;18.80;8.77;;;;;;;0.24;98.27;102509.88;5036480;28;20537;-70
2023/02/15 03:24:10;;;;;;;30.40;11.90;;;;;;;0.24;97.41;102515.19;5036592;28;20474;-69
2023/02/15 03:26:38;;;;;;;32.03;11.40;;;;;;;0.14;97.90;102514.66;5036439;28;20431;-69
2023/02/15 03:29:08;;;;;;;29.47;11.17;;;;;;;0.09;98.22;102506.38;5036060;28;20541;-69
2023/02/15 03:31:40;;;;;;;36.53;10.60;;;;;;;0.11;98.94;102504.34;5036374;28;20461;-69
2023/02/15 03:34:10;;;;;;;28.40;10.00;;;;;;;0.15;98.95;102500.31;5036282;28;20430;-69
2023/02/15 03:36:44;;;;;;;29.10;9.97;;;;;;;0.22;98.91;102501.25;5036211;28;20518;-69
2023/02/15 03:39:16;;;;;;;26.43;11.13;;;;;;;0.19;99.40;102500.78;5036251;28;20510;-69
2023/02/15 03:41:48;;;;;;;27.03;10.37;;;;;;;0.17;98.89;102498.28;5036192;28;20459;-70
2023/02/15 03:44:21;;;;;;;31.73;11.57;;;;;;;0.17;99.06;102492.13;5035833;28;20469;-68
2023/02/15 03:46:53;;;;;;;23.27;8.10;;;;;;;0.17;98.54;102492.94;5036258;28;20431;-68
2023/02/15 03:49:26;;;;;;;26.87;10.50;;;;;;;0.19;98.85;102495.44;5035717;28;20466;-68
2023/02/15 03:51:55;;;;;;;31.90;11.60;;;;;;;0.13;97.96;102497.00;5035643;28;20463;-68
2023/02/15 03:54:45;;;;;;;26.50;10.30;;;;;;;-0.03;98.82;102498.03;5035661;28;20431;-67
2023/02/15 04:02:57;;;;;;;39.80;11.50;;;;;;;0.02;98.92;102486.81;5035394;28;20480;-69
2023/02/15 04:05:25;;;;;;;23.60;9.57;;;;;;;0.07;98.57;102480.94;5035597;28;20423;-69
2023/02/15 04:07:51;;;;;;;25.27;9.40;;;;;;;0.05;98.83;102482.97;5035499;28;20530;-69
2023/02/15 04:13:02;;;;;;;23.20;10.03;;;;;;;-0.02;98.64;102477.53;5034805;28;20451;-69
2023/02/15 04:18:13;;;;;;;23.53;10.10;;;;;;;-0.08;98.34;102478.28;5035140;28;20407;-69
2023/02/15 04:26:12;;;;;;;24.70;9.00;;;;;;;-0.06;99.51;102470.91;5035070;28;21000;-67
2023/02/15 04:28:39;;;;;;;27.90;10.10;;;;;;;0.00;98.98;102467.53;5034783;28;20937;-66
2023/02/15 04:31:05;;;;;;;27.90;11.47;;;;;;;0.04;98.80;102470.63;5034783;28;20462;-67
2023/02/15 04:33:32;;;;;;;35.13;10.60;;;;;;;0.04;99.54;102463.47;5034899;28;20478;-67
2023/02/15 04:36:00;;;;;;;28.03;10.87;;;;;;;0.07;99.51;102455.13;5034979;28;20454;-67
2023/02/15 04:38:27;;;;;;;22.07;10.07;;;;;;;0.11;99.07;102460.91;5035029;28;20449;-67
2023/02/15 04:40:53;;;;;;;28.30;11.23;;;;;;;-0.01;99.50;102452.53;5034946;28;20641;-67
2023/02/15 04:43:20;;;;;;;28.23;10.43;;;;;;;0.00;99.58;102448.91;5034823;28;20521;-66
2023/02/15 04:45:50;;;;;;;27.07;11.47;;;;;;;-0.06;99.86;102442.44;5034925;28;20447;-67
2023/02/15 04:48:17;;;;;;;22.00;10.37;;;;;;;0.04;99.80;102444.81;5034472;28;20971;-67
2023/02/15 04:50:44;;;;;;;31.27;10.80;;;;;;;-0.01;99.62;102439.22;5034735;28;20450;-67
2023/02/15 04:53:12;;;;;;;30.80;12.07;;;;;;;-0.02;99.77;102435.75;5034551;28;20459;-67
2023/02/15 04:55:39;;;;;;;29.70;10.97;;;;;;;0.03;99.38;102431.69;5034285;28;20447;-67
2023/02/15 04:58:05;;;;;;;33.20;11.80;;;;;;;0.02;97.74;102424.72;5034404;28;20439;-67
2023/02/15 05:00:32;;;;;;;27.83;11.50;;;;;;;-0.01;97.50;102417.91;5034391;28;20877;-67
2023/02/15 05:02:59;;;;;;;31.23;11.43;;;;;;;-0.08;98.01;102414.34;5034062;28;21000;-67
2023/02/15 05:05:25;;;;;;;25.87;11.47;;;;;;;-0.20;98.00;102421.16;5034096;28;20443;-67
2023/02/15 05:07:52;;;;;;;32.50;10.53;;;;;;;-0.23;98.44;102418.84;5034060;28;20443;-67
2023/02/15 05:10:20;;;;;;;31.93;11.30;;;;;;;-0.28;98.15;102414.91;5034313;28;20439;-67
2023/02/15 05:12:47;;;;;;;28.97;11.13;;;;;;;-0.32;97.78;102412.78;5034264;28;20534;-67
2023/02/15 05:15:13;;;;;;;25.23;11.10;;;;;;;-0.29;98.55;102415.91;5034240;28;20542;-67
2023/02/15 05:17:40;;;;;;;30.83;11.37;;;;;;;-0.16;98.44;102414.44;5033919;28;20937;-67
2023/02/15 05:20:08;;;;;;;31.70;11.13;;;;;;;-0.32;97.70;102416.28;5033835;28;20454;-66
2023/02/15 05:22:34;;;;;;;30.20;10.87;;;;;;;-0.28;98.19;102419.41;5034076;28;20481;-68
2023/02/15 05:30:30;;;;;;;31.27;12.00;;;;;;;-0.27;96.72;102407.72;5033951;28;20423;-67
2023/02/15 05:32:57;;;;;;;38.37;13.00;;;;;;;-0.21;97.18;102403.53;5033791;28;20455;-69
2023/02/15 05:35:24;;;;;;;32.13;12.33;;;;;;;-0.29;97.54;102409.78;5033615;28;20447;-68
2023/02/15 05:37:50;;;;;;;29.17;11.47;;;;;;;-0.31;97.14;102404.63;5033794;28;20443;-68
2023/02/15 05:40:17;;;;;;;40.60;12.17;;;;;;;-0.33;96.90;102398.66;5033481;28;21022;-68
2023/02/15 05:42:44;;;;;;;31.67;12.73;;;;;;;-0.45;97.51;102396.63;5033080;28;20570;-67
2023/02/15 05:45:11;;;;;;;36.07;12.73;;;;;;;-0.40;97.82;102394.25;5033136;28;20451;-67
2023/02/15 05:47:38;;;;;;;33.90;13.30;;;;;;;-0.43;96.79;102392.78;5033344;28;20442;-68
2023/02/15 05:50:06;;;;;;;33.53;12.13;;;;;;;-0.39;97.16;102391.41;5033494;28;20881;-67
2023/02/15 05:52:33;;;;;;;31.20;13.07;;;;;;;-0.34;96.45;102399.66;5033244;28;20485;-67
2023/02/15 05:55:00;;;;;;;34.90;13.60;;;;;;;-0.38;96.25;102392.22;5033038;28;20533;-67
2023/02/15 05:57:26;;;;;;;25.93;11.73;;;;;;;-0.35;97.18;102392.69;5033173;28;20846;-67
2023/02/15 05:59:53;;;;;;;36.40;11.03;;;;;;;-0.35;97.64;102394.53;5033446;28;20443;-65
2023/02/15 06:02:21;;;;;;;35.47;11.40;;;;;;;-0.22;97.38;102400.06;5033343;28;20474;-68
2023/02/15 06:04:48;;;;;;;30.37;11.60;;;;;;;-0.30;97.20;102387.66;5033304;28;20578;-67
2023/02/15 06:07:14;;;;;;;32.63;13.63;;;;;;;-0.36;96.93;102391.03;5033056;28;20482;-68
2023/02/15 06:09:41;;;;;;;39.47;13.57;;;;;;;-0.38;97.81;102389.56;5033025;28;20455;-68
2023/02/15 06:12:07;;;;;;;51.17;13.27;;;;;;;-0.42;97.97;102383.78;5032609;28;20459;-67
2023/02/15 06:14:34;;;;;;;39.33;14.27;;;;;;;-0.35;97.52;102391.88;5032723;28;20885;-68
2023/02/15 06:17:00;;;;;;;31.73;13.90;;;;;;;-0.34;97.31;102389.03;5032875;28;20841;-68
2023/02/15 06:19:28;;;;;;;40.13;13.97;;;;;;;-0.34;97.35;102389.03;5033272;28;20443;-68
2023/02/15 06:21:55;;;;;;;34.60;12.87;;;;;;;-0.34;97.34;102386.38;5032952;28;20530;-68
2023/02/15 06:24:23;;;;;;;31.83;12.83;;;;;;;-0.39;97.42;102388.75;5033155;28;20459;-67
2023/02/15 06:26:50;;;;;;;30.40;12.43;;;;;;;-0.38;97.56;102381.59;5033235;28;20438;-68
2023/02/15 06:29:17;;;;;;;39.97;15.20;;;;;;;-0.32;98.12;102383.50;5033291;28;20439;-68
2023/02/15 06:31:43;;;;;;;30.63;14.40;;;;;;;-0.22;97.90;102377.88;5033111;28;20435;-68
2023/02/15 06:34:10;;;;;;;34.00;14.27;;;;;;;-0.26;99.03;102383.59;5032752;28;20471;-67
2023/02/15 06:36:38;;;;;;;42.57;16.13;;;;;;;-0.20;99.39;102389.19;5032733;28;20443;-68
2023/02/15 06:39:05;;;;;;;38.17;15.00;;;;;;;-0.17;99.94;102384.34;5036021;28;20450;-67
2023/02/15 06:41:31;;;;;;;42.70;15.43;;;;;;;-0.10;100.00;102387.06;5036850;28;20446;-67
2023/02/15 06:43:58;;;;;;;37.37;15.17;;;;;;;-0.06;100.00;102381.19;5036960;28;20526;-67
2023/02/15 06:46:25;;;;;;;38.20;14.33;;;;;;;-0.11;100.00;102382.75;5036735;28;20447;-67
2023/02/15 06:48:51;;;;;;;45.60;16.43;;;;;;;-0.05;100.00;102382.84;5036985;28;20453;-67
2023/02/15 06:51:18;;;;;;;43.77;14.57;;;;;;;0.03;100.00;102384.56;5037124;28;20439;-69
2023/02/15 06:53:46;;;;;;;51.33;16.97;;;;;;;0.08;100.00;102384.84;5036856;28;20546;-67
2023/02/15 06:56:13;;;;;;;44.00;16.83;;;;;;;0.16;100.00;102390.06;5036937;28;20474;-68
2023/02/15 06:58:41;;;;;;;41.40;15.50;;;;;;;0.23;100.00;102390.97;5036714;28;20541;-68
2023/02/15 07:01:08;;;;;;;37.40;15.20;;;;;;;0.33;100.00;102390.66;5036831;28;20451;-68
2023/02/15 07:03:35;;;;;;;41.23;16.10;;;;;;;0.42;100.00;102380.72;5036610;28;20485;-68
2023/02/15 07:06:05;;;;;;;42.23;17.13;;;;;;;0.62;100.00;102379.09;5036669;28;20545;-68
2023/02/15 07:08:32;;;;;;;54.23;19.77;;;;;;;0.79;100.00;102378.81;5036705;28;20463;-68
2023/02/15 07:12:41;;;;;;;49.40;19.07;;;;;;;0.87;100.00;102376.00;5036325;28;20817;-68
2023/02/15 07:13:47;;;;;;;44.50;18.07;;;;;;;0.97;100.00;102377.34;5036035;28;20516;-68
2023/02/15 07:16:14;;;;;;;45.07;17.93;;;;;;;1.06;100.00;102375.34;5036587;28;20438;-67
2023/02/15 07:18:41;;;;;;;69.90;21.80;;;;;;;1.17;100.00;102363.34;5036428;28;20200;-67
2023/02/15 07:21:08;;;;;;;63.70;18.73;;;;;;;1.26;100.00;102360.31;5036156;28;20431;-67
2023/02/15 07:23:35;;;;;;;53.47;17.37;;;;;;;1.37;100.00;102358.09;5035891;28;20542;-67
2023/02/15 07:26:04;;;;;;;60.93;19.67;;;;;;;1.51;100.00;102349.19;5036322;28;20442;-67
2023/02/15 07:28:30;;;;;;;39.17;16.57;;;;;;;1.65;100.00;102353.56;5036055;28;20439;-67
2023/02/15 07:30:58;;;;;;;42.37;16.93;;;;;;;1.68;100.00;102353.19;5036464;28;20450;-67
2023/02/15 07:33:26;;;;;;;54.90;18.00;;;;;;;1.64;100.00;102346.59;5036128;28;20462;-67
2023/02/15 07:35:54;;;;;;;50.70;17.87;;;;;;;1.72;100.00;102343.72;5036225;28;20815;-67
2023/02/15 07:38:22;;;;;;;40.60;17.47;;;;;;;1.80;100.00;102345.41;5036106;28;20458;-67
2023/02/15 07:40:49;;;;;;;52.97;17.60;;;;;;;1.80;100.00;102342.72;5035771;28;20482;-67
2023/02/15 07:43:17;;;;;;;57.17;17.37;;;;;;;1.72;100.00;102343.72;5035889;28;20553;-67
2023/02/15 07:45:44;;;;;;;38.50;16.40;;;;;;;1.84;100.00;102340.50;5036026;28;20530;-67
2023/02/15 07:48:10;;;;;;;42.40;15.13;;;;;;;1.93;100.00;102339.28;5036101;28;20534;-67
2023/02/15 07:50:37;;;;;;;43.13;16.73;;;;;;;1.92;100.00;102343.00;5034752;28;20477;-67
2023/02/15 07:53:04;;;;;;;44.77;16.70;;;;;;;2.03;100.00;102337.06;5035838;28;20490;-67
2023/02/15 07:55:31;;;;;;;50.63;18.37;;;;;;;2.05;100.00;102336.88;5035794;28;20814;-66
2023/02/15 07:57:57;;;;;;;48.53;18.60;;;;;;;1.97;100.00;102340.53;5036021;28;20443;-67
2023/02/15 08:00:26;;;;;;;48.17;15.10;;;;;;;1.91;100.00;102338.69;5035454;28;20449;-67
2023/02/15 08:05:35;;;;;;;46.50;17.20;;;;;;;1.91;100.00;102336.84;5034676;28;20441;-67
2023/02/15 08:08:01;;;;;;;44.67;15.13;;;;;;;1.89;100.00;102336.19;5035562;28;20454;-67
2023/02/15 08:13:08;;;;;;;40.33;15.93;;;;;;;2.02;100.00;102332.75;5034216;28;20459;-67
2023/02/15 08:15:36;;;;;;;38.17;15.50;;;;;;;2.13;100.00;102318.00;5035165;28;20457;-67
2023/02/15 08:18:03;;;;;;;40.47;16.30;;;;;;;2.15;100.00;102324.78;5035402;28;20450;-67
2023/02/15 08:20:29;;;;;;;49.17;17.87;;;;;;;2.31;100.00;102326.25;5035058;28;20447;-67
2023/02/15 08:22:56;;;;;;;47.93;14.33;;;;;;;2.37;100.00;102324.63;5034989;28;20471;-67
2023/02/15 08:25:22;;;;;;;35.77;15.33;;;;;;;2.47;100.00;102320.50;5035180;28;20932;-67
2023/02/15 08:27:50;;;;;;;40.77;16.20;;;;;;;2.56;100.00;102317.63;5035315;28;20439;-66
2023/02/15 08:30:17;;;;;;;43.93;16.20;;;;;;;2.63;100.00;102313.94;5034874;28;20533;-67
2023/02/15 08:32:45;;;;;;;42.13;15.20;;;;;;;2.67;100.00;102317.03;5034925;28;20476;-67
2023/02/15 08:35:11;;;;;;;42.07;14.33;;;;;;;2.78;100.00;102309.19;5034819;28;20945;-67
2023/02/15 08:37:38;;;;;;;38.73;14.43;;;;;;;2.79;100.00;102310.03;5035045;28;20444;-67
2023/02/15 08:40:05;;;;;;;43.97;16.10;;;;;;;2.86;100.00;102310.84;5034754;28;20439;-67
2023/02/15 08:42:33;;;;;;;37.93;14.33;;;;;;;2.98;100.00;102316.41;5034958;28;20858;-67
2023/02/15 08:45:00;;;;;;;38.90;15.27;;;;;;;3.00;100.00;102306.31;5034827;28;20487;-66
2023/02/15 08:47:26;;;;;;;37.37;13.17;;;;;;;3.04;100.00;102310.22;5034893;28;20463;-67
2023/02/15 08:49:55;;;;;;;45.23;14.53;;;;;;;3.16;100.00;102307.72;5034455;28;20510;-66
2023/02/15 08:52:22;;;;;;;36.60;14.23;;;;;;;3.24;100.00;102305.66;5034677;28;20463;-67
2023/02/15 08:54:48;;;;;;;40.63;15.23;;;;;;;3.31;100.00;102312.84;5034727;28;20445;-67
2023/02/15 08:57:15;;;;;;;38.37;15.23;;;;;;;3.27;100.00;102299.88;5034573;28;20445;-67
2023/02/15 08:59:41;;;;;;;35.83;14.20;;;;;;;3.22;100.00;102305.03;5034701;28;20479;-67
2023/02/15 09:02:11;;;;;;;32.73;13.83;;;;;;;3.31;100.00;102296.78;5034156;28;20459;-67
2023/02/15 09:04:38;;;;;;;36.20;13.90;;;;;;;3.33;100.00;102297.41;5034231;28;20570;-67
2023/02/15 09:07:05;;;;;;;38.93;13.67;;;;;;;3.32;100.00;102295.72;5034515;28;20443;-67
2023/02/15 09:09:32;;;;;;;36.00;15.90;;;;;;;3.20;100.00;102287.53;5034710;28;20442;-67
2023/02/15 09:11:59;;;;;;;28.90;13.30;;;;;;;3.09;100.00;102290.84;5034464;28;20470;-67
2023/02/15 09:14:27;;;;;;;32.90;12.80;;;;;;;3.16;100.00;102287.13;5034259;28;20439;-67
2023/02/15 09:16:54;;;;;;;39.60;13.90;;;;;;;3.29;100.00;102291.63;5033939;28;20967;-67
2023/02/15 09:19:22;;;;;;;38.90;14.67;;;;;;;3.37;100.00;102288.75;5034237;28;20454;-67
2023/02/15 09:21:49;;;;;;;37.27;13.90;;;;;;;3.50;100.00;102288.69;5034018;28;20526;-68
2023/02/15 09:24:18;;;;;;;31.50;14.33;;;;;;;3.61;100.00;102286.38;5034158;28;20499;-66
2023/02/15 09:26:46;;;;;;;33.87;14.10;;;;;;;3.69;100.00;102289.66;5033882;28;20453;-68
2023/02/15 09:29:14;;;;;;;32.40;13.33;;;;;;;3.83;100.00;102290.41;5034362;28;20435;-67
2023/02/15 09:31:43;;;;;;;37.63;13.20;;;;;;;3.99;100.00;102297.13;5033655;28;20963;-67
2023/02/15 09:34:11;;;;;;;36.57;13.27;;;;;;;4.14;99.95;102294.16;5034031;28;20443;-67
2023/02/15 09:36:39;;;;;;;37.40;14.23;;;;;;;4.26;98.78;102287.06;5033992;28;20445;-67
2023/02/15 09:39:09;;;;;;;29.10;12.87;;;;;;;4.21;97.32;102281.53;5033968;28;20435;-67
2023/02/15 09:42:16;;;;;;;40.93;12.77;;;;;;;4.27;96.82;102283.34;5033904;28;20506;-67
2023/02/15 09:45:00;;;;;;;35.17;12.60;;;;;;;4.36;96.87;102275.84;5033586;28;20983;-67
2023/02/15 09:47:59;;;;;;;38.23;15.17;;;;;;;4.36;97.01;102275.84;5033905;28;20444;-66
2023/02/15 09:50:34;;;;;;;27.17;11.27;;;;;;;4.23;96.79;102282.94;5033815;28;20466;-65
2023/02/15 09:53:16;;;;;;;31.80;11.63;;;;;;;4.31;97.02;102287.22;5033629;28;20505;-67
2023/02/15 09:55:52;;;;;;;31.77;12.03;;;;;;;4.20;97.23;102287.91;5033724;28;20423;-67
2023/02/15 09:58:33;;;;;;;28.40;12.30;;;;;;;4.24;97.14;102287.25;5033514;28;20442;-66
2023/02/15 10:01:05;;;;;;;34.50;13.03;;;;;;;4.33;97.45;102292.38;5033632;28;20423;-67
2023/02/15 10:03:42;;;;;;;30.90;11.60;;;;;;;4.50;97.67;102282.75;5033478;28;20550;-67
2023/02/15 10:06:32;;;;;;;28.80;11.87;;;;;;;4.59;97.53;102286.00;5033524;28;20569;-67
2023/02/15 10:09:08;;;;;;;36.77;13.07;;;;;;;4.75;96.82;102275.53;5033613;28;20515;-67
2023/02/15 10:11:51;;;;;;;32.30;13.50;;;;;;;4.77;96.43;102281.50;5033512;28;20438;-66
2023/02/15 10:14:38;;;;;;;40.87;14.93;;;;;;;4.88;96.17;102273.78;5032776;28;20519;-67
2023/02/15 10:17:18;;;;;;;38.33;12.40;;;;;;;4.87;95.58;102272.09;5032975;28;20434;-66
2023/02/15 10:19:57;;;;;;;27.00;11.30;;;;;;;4.80;95.45;102281.06;5033008;28;20904;-68
2023/02/15 10:22:36;;;;;;;30.37;12.23;;;;;;;4.71;95.59;102258.22;5032655;28;20947;-67
2023/02/15 10:25:25;;;;;;;31.00;12.90;;;;;;;4.71;96.36;102260.09;5033571;28;20486;-67
2023/02/15 10:27:51;;;;;;;31.23;11.73;;;;;;;4.65;96.38;102258.25;5032918;28;20431;-68
2023/02/15 10:30:28;;;;;;;29.97;14.30;;;;;;;4.63;96.89;102255.00;5033149;28;20447;-67
2023/02/15 10:33:00;;;;;;;39.73;14.07;;;;;;;4.84;97.69;102248.41;5033244;28;20463;-67
2023/02/15 10:35:37;;;;;;;33.53;13.30;;;;;;;5.06;97.36;102249.63;5033106;28;20797;-67
2023/02/15 10:38:20;;;;;;;39.73;15.40;;;;;;;5.18;96.43;102253.22;5032863;28;20542;-66
2023/02/15 10:40:59;;;;;;;27.67;12.47;;;;;;;5.12;95.34;102245.22;5032883;28;20424;-67
2023/02/15 10:43:46;;;;;;;23.33;11.00;;;;;;;5.10;95.37;102240.09;5032684;28;21059;-68
2023/02/15 10:46:25;;;;;;;35.27;13.43;;;;;;;5.02;94.73;102237.69;5033122;28;20471;-67
2023/02/15 10:49:07;;;;;;;31.23;12.63;;;;;;;5.04;95.65;102241.78;5032930;28;20462;-68
2023/02/15 10:51:45;;;;;;;32.00;10.97;;;;;;;5.12;95.89;102224.56;5033005;28;20423;-66
2023/02/15 10:54:23;;;;;;;25.43;11.00;;;;;;;5.24;96.01;102225.44;5033058;28;20889;-67
2023/02/15 10:57:02;;;;;;;42.07;12.80;;;;;;;5.34;94.84;102224.91;5032628;28;20939;-67
2023/02/15 10:59:53;;;;;;;20.43;9.60;;;;;;;5.34;94.08;102224.91;5032744;28;20924;-67
2023/02/15 11:02:30;;;;;;;31.87;11.90;;;;;;;5.21;93.59;102223.22;5032907;28;20474;-67
2023/02/15 11:05:16;;;;;;;33.37;11.77;;;;;;;5.19;93.89;102227.19;5032867;28;20471;-67
2023/02/15 11:07:45;;;;;;;20.60;10.37;;;;;;;5.15;94.26;102229.47;5032678;28;20514;-67
2023/02/15 11:10:25;;;;;;;25.17;11.07;;;;;;;5.21;93.91;102219.69;5032763;28;20531;-67
2023/02/15 11:12:53;;;;;;;29.33;11.00;;;;;;;5.42;92.78;102221.13;5032449;28;20546;-67
2023/02/15 11:15:26;;;;;;;33.47;13.30;;;;;;;5.57;93.19;102218.84;5032986;28;20443;-66
2023/02/15 11:18:00;;;;;;;33.93;12.60;;;;;;;5.70;93.19;102213.28;5032817;28;20515;-67
2023/02/15 11:20:31;;;;;;;29.80;11.10;;;;;;;5.76;92.50;102206.19;5032717;28;20519;-69
2023/02/15 11:22:59;;;;;;;24.87;11.13;;;;;;;5.81;91.68;102211.69;5032394;28;20537;-67
2023/02/15 11:25:31;;;;;;;30.17;11.90;;;;;;;5.97;91.10;102205.69;5035847;28;20561;-68
2023/02/15 11:27:59;;;;;;;32.90;12.00;;;;;;;6.16;91.70;102208.31;5036046;28;20905;-67
2023/02/15 11:30:29;;;;;;;23.63;11.17;;;;;;;6.26;90.35;102204.00;5035987;28;20867;-67
2023/02/15 11:33:01;;;;;;;35.23;13.17;;;;;;;6.83;90.27;102206.13;5035922;28;20555;-67
2023/02/15 11:35:33;;;;;;;25.27;10.90;;;;;;;7.87;85.97;102210.59;5036192;28;20434;-67
2023/02/15 11:38:07;;;;;;;23.97;10.67;;;;;;;9.16;80.76;102205.03;5036026;28;20435;-68
2023/02/15 11:40:37;;;;;;;28.00;11.67;;;;;;;10.49;75.39;102201.78;5036141;28;20437;-67
2023/02/15 11:43:07;;;;;;;29.37;11.13;;;;;;;11.50;68.86;102208.75;5035748;28;20553;-68
2023/02/15 11:45:35;;;;;;;25.53;10.83;;;;;;;12.19;62.46;102204.81;5036019;28;20463;-68
2023/02/15 11:48:10;;;;;;;30.63;11.00;;;;;;;12.93;60.93;102199.81;5035956;28;20482;-68
2023/02/15 11:50:38;;;;;;;20.57;8.70;;;;;;;14.00;58.17;102200.09;5035761;28;20449;-68
2023/02/15 11:53:10;;;;;;;19.57;8.17;;;;;;;14.77;56.19;102202.94;5035875;28;20841;-68
2023/02/15 11:55:37;;;;;;;22.50;9.50;;;;;;;15.53;52.47;102205.81;5035847;28;20514;-68
2023/02/15 11:58:10;;;;;;;22.40;10.30;;;;;;;15.89;51.31;102204.25;5035811;28;20739;-68